L57 weather

Hidden Hills Airport
Pahrump, Nevada, United States

Public forecast

Using degrees Fahrenheit for public forecast. Weather courtesy of forecast.io.

METAR (pilot weather report)

Closest report is North Las Vegas Airport, 34.7 nm (64.2 km) ENE. Retrieved 2019/03/21 00:53 UTC (8 minutes ago):

KVGT 210053Z 22013KT 10SM -RA BKN070 OVC080 13/05 A2996 RMK AO2 PK WND 21038/0031 RAB30 SLP154 P0000 T01330050

TAF (pilot weather forecast)

Forecast is more than 12 hours old.

Closest forecast is North Las Vegas Airport, 34.7 nm (64.2 km) ENE. Retrieved 2019/03/20 00:22 UTC (1 day ago):

TAF KVGT 202320Z 2100/2124 26012G25KT P6SM -SHRA SCT060 BKN080 FM210100 21010KT P6SM VCSH SCT080 BKN100 FM211100 19007KT P6SM BKN060 FM212000 21017G24KT P6SM VCSH SCT060 BKN100